createdAt,value
2022-11-29T00:00:12.368Z,20.91
2022-11-29T00:02:44.918Z,20.86
2022-11-29T00:05:15.331Z,20.91
2022-11-29T00:07:45.087Z,20.96
2022-11-29T00:10:14.898Z,20.91
2022-11-29T00:12:44.674Z,20.86
2022-11-29T00:15:14.359Z,20.86
2022-11-29T00:17:44.276Z,20.83
2022-11-29T00:20:14.476Z,20.73
2022-11-29T00:22:44.205Z,20.77
2022-11-29T00:25:14.054Z,20.83
2022-11-29T00:27:43.759Z,20.86
2022-11-29T00:30:14.762Z,20.86
2022-11-29T00:32:44.444Z,20.77
2022-11-29T00:35:14.362Z,20.79
2022-11-29T00:37:44.801Z,20.81
2022-11-29T00:40:15.012Z,20.80
2022-11-29T00:42:44.677Z,20.74
2022-11-29T00:45:14.813Z,20.73
2022-11-29T00:47:44.927Z,20.65
2022-11-29T00:50:14.614Z,20.60
2022-11-29T00:52:44.773Z,20.57
2022-11-29T00:55:14.448Z,20.56
2022-11-29T00:57:44.608Z,20.49
2022-11-29T01:00:14.842Z,20.49
2022-11-29T01:02:44.561Z,20.47
2022-11-29T01:05:14.338Z,20.49
2022-11-29T01:07:44.141Z,20.49
2022-11-29T01:10:13.908Z,20.45
2022-11-29T01:12:43.635Z,20.43
2022-11-29T01:15:13.617Z,20.43
2022-11-29T01:17:43.386Z,20.38
2022-11-29T01:20:14.378Z,20.38
2022-11-29T01:22:44.820Z,20.38
2022-11-29T01:25:15.383Z,20.30
2022-11-29T01:27:46.051Z,20.25
2022-11-29T01:30:16.567Z,20.25
2022-11-29T01:32:46.346Z,20.24
2022-11-29T01:35:16.410Z,20.25
2022-11-29T01:37:46.095Z,20.25
2022-11-29T01:40:16.056Z,20.22
2022-11-29T01:42:45.892Z,20.24
2022-11-29T01:45:23.347Z,20.24
2022-11-29T01:47:58.920Z,20.19
2022-11-29T01:50:29.203Z,20.15
2022-11-29T01:53:00.431Z,20.15
2022-11-29T01:55:30.687Z,20.16
2022-11-29T01:58:02.307Z,20.16
2022-11-29T02:00:32.211Z,20.18
2022-11-29T02:03:13.410Z,20.14
2022-11-29T02:05:50.193Z,20.09
2022-11-29T02:08:42.725Z,20.05
2022-11-29T02:11:46.870Z,20.01
2022-11-29T02:14:31.455Z,19.98
2022-11-29T02:17:10.295Z,19.94
2022-11-29T02:19:58.468Z,19.92
2022-11-29T02:22:32.545Z,19.94
2022-11-29T02:25:13.864Z,19.92
2022-11-29T02:28:28.016Z,19.94
2022-11-29T02:31:19.437Z,19.85
2022-11-29T02:34:17.014Z,19.88
2022-11-29T02:37:11.300Z,19.92
2022-11-29T02:39:50.670Z,19.92
2022-11-29T02:42:29.275Z,19.92
2022-11-29T02:45:50.277Z,19.97
2022-11-29T02:48:40.456Z,19.88
2022-11-29T02:51:23.071Z,19.95
2022-11-29T02:54:17.917Z,19.94
2022-11-29T02:57:00.324Z,19.91
2022-11-29T02:59:43.483Z,19.95
2022-11-29T03:02:33.965Z,19.98
2022-11-29T03:05:31.572Z,19.94
2022-11-29T03:08:38.289Z,19.95
2022-11-29T03:11:11.302Z,19.92
2022-11-29T03:14:07.085Z,19.97
2022-11-29T03:16:53.362Z,19.99
2022-11-29T03:19:38.718Z,20.01
2022-11-29T03:22:35.573Z,19.98
2022-11-29T03:25:21.010Z,19.97
2022-11-29T03:28:20.169Z,19.91
2022-11-29T03:31:16.566Z,19.91
2022-11-29T03:33:52.104Z,19.87
2022-11-29T03:36:29.085Z,19.81
2022-11-29T03:39:05.812Z,19.78
2022-11-29T03:41:57.391Z,19.74
2022-11-29T03:44:35.354Z,19.74
2022-11-29T03:47:16.419Z,19.70
2022-11-29T03:49:58.004Z,19.78
2022-11-29T03:52:55.014Z,19.73
2022-11-29T03:55:30.450Z,19.68
2022-11-29T03:58:30.520Z,19.75
2022-11-29T04:01:18.558Z,19.74
2022-11-29T04:03:57.704Z,19.73
2022-11-29T04:07:01.531Z,19.77
2022-11-29T04:10:17.170Z,19.75
2022-11-29T04:12:57.129Z,19.87
2022-11-29T04:15:36.676Z,19.82
2022-11-29T04:18:34.009Z,19.88
2022-11-29T04:21:03.827Z,19.81
2022-11-29T04:23:39.888Z,19.78
2022-11-29T04:26:22.450Z,19.74
2022-11-29T04:28:55.128Z,19.73
2022-11-29T04:31:34.092Z,19.75
2022-11-29T04:34:34.553Z,19.79
2022-11-29T04:37:31.582Z,19.75
2022-11-29T04:40:10.896Z,19.77
2022-11-29T04:42:56.032Z,19.75
2022-11-29T04:46:07.143Z,19.68
2022-11-29T04:48:55.581Z,19.66
2022-11-29T04:51:43.571Z,19.66
2022-11-29T04:54:46.329Z,19.67
2022-11-29T04:57:54.697Z,19.67
2022-11-29T05:00:26.143Z,19.60
2022-11-29T05:03:29.325Z,19.57
2022-11-29T05:06:13.513Z,19.53
2022-11-29T05:09:04.427Z,19.53
2022-11-29T05:12:05.296Z,19.64
2022-11-29T05:14:58.923Z,19.67
2022-11-29T05:17:44.287Z,19.57
2022-11-29T05:20:50.064Z,19.50
2022-11-29T05:23:20.252Z,19.47
2022-11-29T05:26:03.130Z,19.31
2022-11-29T05:28:49.231Z,19.22
2022-11-29T05:31:44.327Z,19.23
2022-11-29T05:34:46.769Z,19.41
2022-11-29T05:37:40.936Z,19.54
2022-11-29T05:40:23.074Z,19.47
2022-11-29T05:43:31.118Z,19.50
2022-11-29T05:46:15.350Z,19.61
2022-11-29T05:49:11.068Z,19.63
2022-11-29T05:52:10.292Z,19.68
2022-11-29T05:54:50.008Z,19.68
2022-11-29T05:57:56.654Z,19.77
2022-11-29T06:00:33.351Z,19.78
2022-11-29T06:03:52.782Z,19.81
2022-11-29T06:06:46.459Z,19.81
2022-11-29T06:09:43.980Z,19.79
2022-11-29T06:12:22.124Z,19.82
2022-11-29T06:15:33.949Z,19.78
2022-11-29T06:18:52.971Z,19.81
2022-11-29T06:21:38.487Z,19.77
2022-11-29T06:24:21.817Z,19.78
2022-11-29T06:27:16.010Z,19.87
2022-11-29T06:30:08.701Z,19.89
2022-11-29T06:33:15.204Z,19.79
2022-11-29T06:36:04.769Z,19.73
2022-11-29T06:38:34.984Z,19.73
2022-11-29T06:41:05.040Z,19.47
2022-11-29T06:43:35.224Z,19.34
2022-11-29T06:46:31.551Z,19.23
2022-11-29T06:49:05.417Z,19.15
2022-11-29T06:51:54.065Z,19.06
2022-11-29T06:54:52.797Z,18.96
2022-11-29T06:57:30.531Z,18.94
2022-11-29T07:00:19.077Z,18.88
2022-11-29T07:03:23.493Z,18.96
2022-11-29T07:05:53.818Z,18.98
2022-11-29T07:08:26.516Z,18.99
2022-11-29T07:10:57.834Z,18.98
2022-11-29T07:13:29.084Z,18.91
2022-11-29T07:16:24.035Z,18.89
2022-11-29T07:19:15.645Z,18.91
2022-11-29T07:22:16.393Z,19.06
2022-11-29T07:25:01.369Z,19.23
2022-11-29T07:27:34.011Z,19.31
2022-11-29T07:30:18.135Z,19.29
2022-11-29T07:33:00.449Z,19.13
2022-11-29T07:35:51.686Z,18.91
2022-11-29T07:38:42.339Z,18.73
2022-11-29T07:41:26.196Z,18.62
2022-11-29T07:44:16.161Z,18.51
2022-11-29T07:46:46.400Z,18.62
2022-11-29T07:49:16.172Z,18.68
2022-11-29T07:51:46.297Z,18.72
2022-11-29T07:54:20.130Z,18.61
2022-11-29T07:56:50.928Z,18.50
2022-11-29T07:59:21.274Z,18.48
2022-11-29T08:01:50.983Z,18.38
2022-11-29T08:04:20.654Z,18.29
2022-11-29T08:06:50.331Z,18.23
2022-11-29T08:09:20.154Z,18.14
2022-11-29T08:11:49.979Z,18.12
2022-11-29T08:14:19.659Z,18.12
2022-11-29T08:16:49.729Z,18.12
2022-11-29T08:19:19.454Z,18.07
2022-11-29T08:21:49.378Z,18.04
2022-11-29T08:24:19.262Z,18.03
2022-11-29T08:26:50.119Z,18.02
2022-11-29T08:29:21.029Z,17.99
2022-11-29T08:31:55.386Z,17.97
2022-11-29T08:34:26.522Z,18.00
2022-11-29T08:36:59.270Z,18.03
2022-11-29T08:39:29.407Z,18.02
2022-11-29T08:41:59.156Z,18.13
2022-11-29T08:44:28.870Z,18.17
2022-11-29T08:47:16.997Z,18.17
2022-11-29T08:50:05.111Z,18.17
2022-11-29T08:52:59.157Z,18.21
2022-11-29T08:55:33.071Z,18.26
2022-11-29T08:58:06.392Z,18.27
2022-11-29T09:00:36.637Z,18.33
2022-11-29T09:03:26.833Z,18.41
2022-11-29T09:05:56.900Z,18.44
2022-11-29T09:08:26.775Z,18.54
2022-11-29T09:10:56.552Z,18.65
2022-11-29T09:13:26.298Z,18.81
2022-11-29T09:15:56.053Z,19.08
2022-11-29T09:18:25.966Z,19.18
2022-11-29T09:20:55.860Z,19.34
2022-11-29T09:23:25.815Z,21.28
2022-11-29T09:25:55.653Z,20.91
2022-11-29T09:28:25.323Z,20.46
2022-11-29T09:31:07.099Z,20.46
2022-11-29T09:33:37.892Z,20.97
2022-11-29T09:36:09.938Z,22.23
2022-11-29T09:38:40.453Z,24.12
2022-11-29T09:41:23.289Z,24.94
2022-11-29T09:44:11.657Z,24.88
2022-11-29T09:46:47.228Z,24.12
2022-11-29T09:49:16.928Z,24.94
2022-11-29T09:52:07.170Z,23.39
2022-11-29T09:54:53.983Z,22.81
2022-11-29T09:57:28.111Z,22.34
2022-11-29T10:00:04.000Z,22.21
2022-11-29T10:02:34.579Z,22.18
2022-11-29T10:05:16.804Z,22.27
2022-11-29T10:08:13.412Z,22.51
2022-11-29T10:10:52.339Z,22.68
2022-11-29T10:13:36.940Z,22.71
2022-11-29T10:16:27.536Z,22.92
2022-11-29T10:19:05.894Z,23.24
2022-11-29T10:21:39.892Z,23.50
2022-11-29T10:24:19.294Z,23.36
2022-11-29T10:26:49.371Z,23.54
2022-11-29T10:29:19.055Z,24.38
2022-11-29T10:31:50.746Z,24.04
2022-11-29T10:34:24.007Z,25.08
2022-11-29T10:36:53.930Z,24.73
2022-11-29T10:39:46.790Z,24.40
2022-11-29T10:42:43.584Z,24.53
2022-11-29T10:45:25.721Z,24.63
2022-11-29T10:48:03.986Z,25.64
2022-11-29T10:50:37.035Z,26.13
2022-11-29T10:53:10.729Z,26.07
2022-11-29T10:55:56.840Z,26.52
2022-11-29T10:58:29.046Z,26.14
2022-11-29T11:01:02.374Z,26.34
2022-11-29T11:03:57.761Z,27.08
2022-11-29T11:06:58.238Z,27.15
2022-11-29T11:09:34.358Z,27.54
2022-11-29T11:12:18.836Z,27.69
2022-11-29T11:14:50.153Z,28.19
2022-11-29T11:17:33.665Z,27.67
2022-11-29T11:20:25.918Z,28.11
2022-11-29T11:23:08.097Z,28.09
2022-11-29T11:25:41.919Z,28.15
2022-11-29T11:28:24.296Z,28.28
2022-11-29T11:31:01.197Z,28.60
2022-11-29T11:33:35.207Z,27.84
2022-11-29T11:36:37.466Z,27.19
2022-11-29T11:39:20.498Z,27.05
2022-11-29T11:42:11.485Z,26.85
2022-11-29T11:44:53.691Z,26.72
2022-11-29T11:47:34.538Z,27.18
2022-11-29T11:50:04.789Z,26.65
2022-11-29T11:52:55.731Z,26.43
2022-11-29T11:55:30.707Z,26.39
2022-11-29T11:58:10.184Z,27.54
2022-11-29T12:01:14.857Z,28.39
2022-11-29T12:04:22.765Z,29.15
2022-11-29T12:07:00.175Z,28.08
2022-11-29T12:09:50.164Z,27.70
2022-11-29T12:12:23.242Z,27.64
2022-11-29T12:15:04.656Z,27.43
2022-11-29T12:17:43.252Z,27.77
2022-11-29T12:20:24.747Z,27.93
2022-11-29T12:23:13.038Z,28.14
2022-11-29T12:25:54.293Z,28.52
2022-11-29T12:28:38.210Z,28.75
2022-11-29T12:31:36.872Z,27.64
2022-11-29T12:34:09.954Z,27.06
2022-11-29T12:37:20.527Z,26.74
2022-11-29T12:39:53.647Z,26.84
2022-11-29T12:42:56.187Z,27.03
2022-11-29T12:45:36.286Z,26.54
2022-11-29T12:48:24.133Z,26.24
2022-11-29T12:51:32.918Z,26.36
2022-11-29T12:54:40.724Z,26.33
2022-11-29T12:57:16.340Z,26.24
2022-11-29T13:00:12.106Z,26.22
2022-11-29T13:03:18.947Z,26.19
2022-11-29T13:05:55.456Z,26.14
2022-11-29T13:08:53.792Z,26.16
2022-11-29T13:11:31.714Z,26.29
2022-11-29T13:14:42.107Z,26.60
2022-11-29T13:17:40.798Z,26.72
2022-11-29T13:20:35.076Z,26.94
2022-11-29T13:23:20.757Z,27.05
2022-11-29T13:25:55.355Z,26.82
2022-11-29T13:28:33.405Z,26.84
2022-11-29T13:31:24.999Z,26.85
2022-11-29T13:34:09.645Z,27.30
2022-11-29T13:36:54.310Z,27.88
2022-11-29T13:39:48.403Z,28.09
2022-11-29T13:42:38.516Z,28.65
2022-11-29T13:45:24.350Z,28.34
2022-11-29T13:47:58.234Z,28.35
2022-11-29T13:50:44.729Z,27.93
2022-11-29T13:53:24.791Z,27.81
2022-11-29T13:56:04.304Z,28.42
2022-11-29T13:58:38.549Z,28.75
2022-11-29T14:01:16.055Z,28.84
2022-11-29T14:03:50.979Z,28.44
2022-11-29T14:06:33.613Z,28.12
2022-11-29T14:09:20.188Z,28.46
2022-11-29T14:12:02.070Z,29.54
2022-11-29T14:15:01.887Z,30.37
2022-11-29T14:17:48.152Z,29.68
2022-11-29T14:20:24.386Z,29.11
2022-11-29T14:23:41.877Z,28.83
2022-11-29T14:26:11.938Z,28.22
2022-11-29T14:28:42.059Z,28.04
2022-11-29T14:31:12.080Z,28.04
2022-11-29T14:34:05.906Z,27.98
2022-11-29T14:36:42.227Z,28.12
2022-11-29T14:39:30.030Z,28.29
2022-11-29T14:42:15.439Z,28.84
2022-11-29T14:44:59.440Z,28.99
2022-11-29T14:47:40.043Z,30.37
2022-11-29T14:50:29.526Z,30.92
2022-11-29T14:53:00.375Z,31.25
2022-11-29T14:55:37.530Z,30.14
2022-11-29T14:58:18.580Z,30.70
2022-11-29T15:00:51.067Z,31.72
2022-11-29T15:03:26.590Z,31.47
2022-11-29T15:06:19.904Z,32.07
2022-11-29T15:09:06.569Z,32.52
2022-11-29T15:11:59.314Z,32.37
2022-11-29T15:14:29.266Z,32.31
2022-11-29T15:17:24.831Z,32.14
2022-11-29T15:20:10.697Z,32.46
2022-11-29T15:23:02.229Z,30.50
2022-11-29T15:25:33.655Z,30.92
2022-11-29T15:28:06.986Z,31.56
2022-11-29T15:30:42.027Z,31.83
2022-11-29T15:33:26.972Z,32.44
2022-11-29T15:36:07.557Z,32.03
2022-11-29T15:38:55.176Z,31.69
2022-11-29T15:41:32.493Z,31.66
2022-11-29T15:44:05.819Z,31.63
2022-11-29T15:46:38.027Z,31.81
2022-11-29T15:49:37.011Z,31.60
2022-11-29T15:52:18.420Z,32.34
2022-11-29T15:55:04.929Z,32.45
2022-11-29T15:57:42.525Z,31.32
2022-11-29T16:00:22.923Z,32.38
2022-11-29T16:03:02.607Z,32.52
2022-11-29T16:05:38.519Z,30.88
2022-11-29T16:08:21.278Z,31.86
2022-11-29T16:10:54.232Z,31.93
2022-11-29T16:13:32.207Z,32.20
2022-11-29T16:16:19.074Z,31.88
2022-11-29T16:18:52.017Z,30.47
2022-11-29T16:21:31.504Z,30.60
2022-11-29T16:24:14.855Z,31.33
2022-11-29T16:26:46.600Z,31.67
2022-11-29T16:29:30.886Z,32.10
2022-11-29T16:32:01.137Z,32.27
2022-11-29T16:34:35.081Z,32.52
2022-11-29T16:37:08.602Z,32.25
2022-11-29T16:39:40.654Z,32.03
2022-11-29T16:42:25.282Z,31.93
2022-11-29T16:45:05.860Z,31.39
2022-11-29T16:47:54.110Z,31.90
2022-11-29T16:50:24.738Z,31.76
2022-11-29T16:52:56.821Z,31.77
2022-11-29T16:55:27.438Z,31.60
2022-11-29T16:57:57.189Z,31.94
2022-11-29T17:00:32.973Z,31.65
2022-11-29T17:03:03.090Z,32.11
2022-11-29T17:05:33.035Z,32.23
2022-11-29T17:08:03.905Z,31.91
2022-11-29T17:10:34.247Z,31.74
2022-11-29T17:13:05.830Z,31.59
2022-11-29T17:15:35.951Z,31.96
2022-11-29T17:18:05.776Z,32.59
2022-11-29T17:20:35.770Z,31.46
2022-11-29T17:23:05.486Z,30.02
2022-11-29T17:25:35.149Z,29.34
2022-11-29T17:28:05.144Z,29.58
2022-11-29T17:30:35.031Z,30.67
2022-11-29T17:33:05.222Z,31.93
2022-11-29T17:35:36.837Z,32.68
2022-11-29T17:38:06.940Z,32.56
2022-11-29T17:40:36.783Z,31.60
2022-11-29T17:43:06.538Z,31.33
2022-11-29T17:45:36.389Z,29.98
2022-11-29T17:48:06.274Z,31.23
2022-11-29T17:50:35.977Z,31.63
2022-11-29T17:53:06.427Z,31.26
2022-11-29T17:55:36.170Z,31.47
2022-11-29T17:58:06.285Z,31.09
2022-11-29T18:00:35.972Z,29.89
2022-11-29T18:03:06.033Z,29.47
2022-11-29T18:05:35.692Z,30.53
2022-11-29T18:08:07.000Z,29.93
2022-11-29T18:10:38.928Z,29.73
2022-11-29T18:13:10.501Z,29.34
2022-11-29T18:15:40.575Z,28.86
2022-11-29T18:18:11.690Z,29.88
2022-11-29T18:20:42.497Z,30.23
2022-11-29T18:23:12.599Z,30.32
2022-11-29T18:25:42.409Z,30.64
2022-11-29T18:28:12.468Z,30.61
2022-11-29T18:30:42.520Z,30.19
2022-11-29T18:33:12.215Z,29.39
2022-11-29T18:35:41.892Z,29.89
2022-11-29T18:38:16.005Z,30.16
2022-11-29T18:40:46.933Z,30.53
2022-11-29T18:43:18.003Z,30.61
2022-11-29T18:45:48.113Z,30.71
2022-11-29T18:48:17.903Z,30.90
2022-11-29T18:50:47.752Z,30.72
2022-11-29T18:53:18.035Z,31.12
2022-11-29T18:55:47.794Z,31.28
2022-11-29T18:58:17.462Z,31.12
2022-11-29T19:00:47.222Z,30.88
2022-11-29T19:03:16.993Z,30.78
2022-11-29T19:05:56.638Z,30.54
2022-11-29T19:08:26.739Z,30.45
2022-11-29T19:10:56.483Z,30.17
2022-11-29T19:13:26.324Z,30.01
2022-11-29T19:15:56.634Z,29.95
2022-11-29T19:18:26.906Z,29.76
2022-11-29T19:21:05.950Z,29.86
2022-11-29T19:23:35.947Z,29.95
2022-11-29T19:26:06.326Z,29.90
2022-11-29T19:28:41.653Z,29.96
2022-11-29T19:31:13.462Z,29.79
2022-11-29T19:33:45.859Z,29.69
2022-11-29T19:36:21.582Z,29.55
2022-11-29T19:38:53.946Z,29.10
2022-11-29T19:41:28.827Z,28.94
2022-11-29T19:44:01.214Z,28.80
2022-11-29T19:46:36.546Z,28.73
2022-11-29T19:49:07.240Z,28.80
2022-11-29T19:51:38.000Z,28.93
2022-11-29T19:54:09.962Z,28.60
2022-11-29T19:56:40.429Z,28.52
2022-11-29T19:59:10.735Z,28.46
2022-11-29T20:01:42.724Z,28.28
2022-11-29T20:04:14.867Z,28.19
2022-11-29T20:06:45.961Z,28.28
2022-11-29T20:09:16.445Z,28.08
2022-11-29T20:11:46.149Z,27.94
2022-11-29T20:14:16.389Z,28.08
2022-11-29T20:16:46.871Z,28.19
2022-11-29T20:19:18.357Z,28.01
2022-11-29T20:21:50.399Z,27.86
2022-11-29T20:24:20.667Z,27.73
2022-11-29T20:26:51.338Z,27.59
2022-11-29T20:29:22.732Z,27.49
2022-11-29T20:31:52.810Z,27.35
2022-11-29T20:34:22.800Z,27.16
2022-11-29T20:37:22.205Z,27.09
2022-11-29T20:40:02.703Z,26.98
2022-11-29T20:42:41.708Z,26.85
2022-11-29T20:45:14.670Z,26.75
2022-11-29T20:48:12.330Z,26.62
2022-11-29T20:50:46.082Z,26.48
2022-11-29T20:53:35.967Z,26.50
2022-11-29T20:56:07.440Z,26.47
2022-11-29T20:58:38.420Z,26.43
2022-11-29T21:01:09.109Z,26.36
2022-11-29T21:03:39.119Z,26.29
2022-11-29T21:06:09.651Z,26.19
2022-11-29T21:08:39.315Z,26.20
2022-11-29T21:11:13.723Z,26.07
2022-11-29T21:13:44.958Z,25.96
2022-11-29T21:16:16.642Z,25.89
2022-11-29T21:18:47.171Z,25.99
2022-11-29T21:21:27.292Z,25.76
2022-11-29T21:24:29.174Z,25.71
2022-11-29T21:26:59.219Z,25.61
2022-11-29T21:29:29.402Z,25.41
2022-11-29T21:31:59.366Z,25.34
2022-11-29T21:34:29.208Z,25.25
2022-11-29T21:37:01.493Z,25.18
2022-11-29T21:39:35.636Z,25.10
2022-11-29T21:42:06.240Z,25.20
2022-11-29T21:44:35.919Z,25.15
2022-11-29T21:47:05.968Z,25.10
2022-11-29T21:49:35.994Z,25.04
2022-11-29T21:52:07.419Z,25.08
2022-11-29T21:54:37.626Z,25.03
2022-11-29T21:57:08.031Z,24.97
2022-11-29T21:59:38.089Z,24.83
2022-11-29T22:02:07.830Z,24.73
2022-11-29T22:04:37.617Z,24.53
2022-11-29T22:07:07.373Z,24.43
2022-11-29T22:09:37.046Z,24.35
2022-11-29T22:12:31.917Z,24.25
2022-11-29T22:14:57.041Z,24.15
2022-11-29T22:17:27.618Z,24.05
2022-11-29T22:19:57.298Z,24.02
2022-11-29T22:22:28.252Z,23.96
2022-11-29T22:24:58.299Z,23.82
2022-11-29T22:27:27.973Z,23.78
2022-11-29T22:29:58.217Z,23.53
2022-11-29T22:32:27.984Z,23.49
2022-11-29T22:34:57.671Z,23.37
2022-11-29T22:37:27.918Z,23.30
2022-11-29T22:39:57.667Z,23.16
2022-11-29T22:42:27.354Z,23.08
2022-11-29T22:44:57.098Z,23.05
2022-11-29T22:47:26.815Z,23.02
2022-11-29T22:49:56.571Z,22.94
2022-11-29T22:52:26.506Z,22.87
2022-11-29T22:54:59.918Z,22.87
2022-11-29T22:57:33.383Z,22.88
2022-11-29T23:00:03.097Z,22.84
2022-11-29T23:02:32.817Z,22.84
2022-11-29T23:05:02.547Z,22.76
2022-11-29T23:07:32.305Z,22.71
2022-11-29T23:10:02.246Z,22.61
2022-11-29T23:12:32.032Z,22.54
2022-11-29T23:15:03.126Z,22.47
2022-11-29T23:17:33.204Z,22.41
2022-11-29T23:20:03.132Z,22.39
2022-11-29T23:22:32.963Z,22.31
2022-11-29T23:25:03.553Z,22.31
2022-11-29T23:27:33.289Z,22.25
2022-11-29T23:30:03.038Z,22.27
2022-11-29T23:32:32.970Z,22.18
2022-11-29T23:35:02.743Z,22.20
2022-11-29T23:37:32.521Z,22.18
2022-11-29T23:40:02.185Z,22.12
2022-11-29T23:42:32.140Z,22.17
2022-11-29T23:45:01.804Z,22.14
2022-11-29T23:47:31.492Z,22.16
2022-11-29T23:50:01.168Z,22.13
2022-11-29T23:52:30.848Z,22.07
2022-11-29T23:55:00.855Z,22.02
2022-11-29T23:57:34.276Z,21.99
